sensor_id;sensor_type;location;lat;lon;timestamp;pressure;altitude;pressure_sealevel;temperature;humidity
44453;BME280;30155;52.164;21.236;2023-06-10T03:16:27;100547.64;;;17.29;54.11
44453;BME280;30155;52.164;21.236;2023-06-10T03:22:12;100554.91;;;17.61;53.87
44453;BME280;30155;52.164;21.236;2023-06-10T03:28:09;100561.50;;;17.52;53.57
44453;BME280;30155;52.164;21.236;2023-06-10T03:33:21;100563.03;;;17.79;53.57
44453;BME280;30155;52.164;21.236;2023-06-10T03:38:28;100566.99;;;17.84;53.32
44453;BME280;30155;52.164;21.236;2023-06-10T03:49:16;100569.36;;;18.03;53.11
44453;BME280;30155;52.164;21.236;2023-06-10T03:54:56;100571.57;;;18.07;53.37
44453;BME280;30155;52.164;21.236;2023-06-10T04:00:59;100573.41;;;18.13;53.25
44453;BME280;30155;52.164;21.236;2023-06-10T04:13:06;100578.25;;;18.06;53.58
44453;BME280;30155;52.164;21.236;2023-06-10T04:24:53;100591.75;;;17.96;54.02
44453;BME280;30155;52.164;21.236;2023-06-10T04:36:59;100589.41;;;17.88;54.27
44453;BME280;30155;52.164;21.236;2023-06-10T04:54:35;100588.89;;;18.09;54.55
44453;BME280;30155;52.164;21.236;2023-06-10T05:00:05;100593.50;;;18.18;54.95
44453;BME280;30155;52.164;21.236;2023-06-10T05:05:08;100596.66;;;18.28;54.61
44453;BME280;30155;52.164;21.236;2023-06-10T05:10:43;100601.35;;;18.42;54.24
44453;BME280;30155;52.164;21.236;2023-06-10T05:16:28;100603.05;;;18.55;54.43
44453;BME280;30155;52.164;21.236;2023-06-10T05:21:22;100603.56;;;18.65;54.58
44453;BME280;30155;52.164;21.236;2023-06-10T05:27:19;100607.08;;;18.86;54.11
44453;BME280;30155;52.164;21.236;2023-06-10T05:39:42;100607.73;;;19.48;53.13
44453;BME280;30155;52.164;21.236;2023-06-10T06:20:02;100608.05;;;20.55;51.20
44453;BME280;30155;52.164;21.236;2023-06-10T07:00:53;100611.27;;;23.16;47.80
44453;BME280;30155;52.164;21.236;2023-06-10T08:07:07;100624.28;;;35.36;30.82
44453;BME280;30155;52.164;21.236;2023-06-10T08:12:37;100637.09;;;33.56;31.52
44453;BME280;30155;52.164;21.236;2023-06-10T08:37:10;100636.79;;;36.87;26.12
44453;BME280;30155;52.164;21.236;2023-06-10T08:42:28;100644.39;;;35.20;26.64
44453;BME280;30155;52.164;21.236;2023-06-10T08:47:40;100642.05;;;35.45;26.70
44453;BME280;30155;52.164;21.236;2023-06-10T08:52:44;100642.69;;;35.56;25.86
44453;BME280;30155;52.164;21.236;2023-06-10T08:57:45;100647.13;;;35.45;25.76
44453;BME280;30155;52.164;21.236;2023-06-10T09:02:44;100656.88;;;34.49;26.13
44453;BME280;30155;52.164;21.236;2023-06-10T09:07:40;100657.82;;;34.46;25.80
44453;BME280;30155;52.164;21.236;2023-06-10T09:12:45;100657.59;;;33.18;27.27
44453;BME280;30155;52.164;21.236;2023-06-10T09:17:48;100654.62;;;31.74;28.66
44453;BME280;30155;52.164;21.236;2023-06-10T09:22:49;100654.62;;;30.75;29.49
44453;BME280;30155;52.164;21.236;2023-06-10T09:27:46;100659.47;;;30.34;29.79
44453;BME280;30155;52.164;21.236;2023-06-10T09:32:44;100657.16;;;31.26;28.95
44453;BME280;30155;52.164;21.236;2023-06-10T09:37:40;100664.16;;;31.48;28.21
44453;BME280;30155;52.164;21.236;2023-06-10T09:43:05;100660.34;;;32.43;27.02
44453;BME280;30155;52.164;21.236;2023-06-10T09:48:11;100657.83;;;33.26;26.65
44453;BME280;30155;52.164;21.236;2023-06-10T09:53:20;100662.23;;;33.84;25.73
44453;BME280;30155;52.164;21.236;2023-06-10T09:58:12;100657.77;;;34.42;25.66
44453;BME280;30155;52.164;21.236;2023-06-10T10:03:12;100652.42;;;35.28;24.85
44453;BME280;30155;52.164;21.236;2023-06-10T10:08:28;100656.25;;;35.80;24.44
44453;BME280;30155;52.164;21.236;2023-06-10T10:13:33;100648.98;;;35.23;24.23
44453;BME280;30155;52.164;21.236;2023-06-10T10:18:29;100649.27;;;34.04;25.82
44453;BME280;30155;52.164;21.236;2023-06-10T10:23:24;100653.14;;;33.70;26.05
44453;BME280;30155;52.164;21.236;2023-06-10T10:28:19;100646.89;;;34.04;25.94
44453;BME280;30155;52.164;21.236;2023-06-10T10:33:21;100649.65;;;34.30;25.52
44453;BME280;30155;52.164;21.236;2023-06-10T10:38:14;100650.00;;;34.73;25.36
44453;BME280;30155;52.164;21.236;2023-06-10T10:43:07;100648.23;;;34.72;25.24
44453;BME280;30155;52.164;21.236;2023-06-10T10:48:05;100646.45;;;34.74;25.04
44453;BME280;30155;52.164;21.236;2023-06-10T10:53:02;100652.59;;;34.48;25.17
44453;BME280;30155;52.164;21.236;2023-06-10T10:58:03;100655.09;;;33.83;25.81
44453;BME280;30155;52.164;21.236;2023-06-10T11:08:02;100647.23;;;31.14;28.13
44453;BME280;30155;52.164;21.236;2023-06-10T11:12:54;100650.17;;;30.45;29.33
44453;BME280;30155;52.164;21.236;2023-06-10T11:18:08;100646.30;;;30.17;30.30
44453;BME280;30155;52.164;21.236;2023-06-10T11:23:02;100646.46;;;29.98;30.75
44453;BME280;30155;52.164;21.236;2023-06-10T11:27:56;100645.04;;;29.79;31.04
44453;BME280;30155;52.164;21.236;2023-06-10T11:32:53;100646.34;;;30.00;31.72
44453;BME280;30155;52.164;21.236;2023-06-10T11:37:49;100641.80;;;30.02;31.62
44453;BME280;30155;52.164;21.236;2023-06-10T11:42:42;100642.48;;;29.54;31.90
44453;BME280;30155;52.164;21.236;2023-06-10T11:47:39;100645.45;;;29.44;32.34
44453;BME280;30155;52.164;21.236;2023-06-10T11:52:31;100638.10;;;29.62;32.78
44453;BME280;30155;52.164;21.236;2023-06-10T11:57:28;100630.06;;;30.06;32.88
44453;BME280;30155;52.164;21.236;2023-06-10T12:02:22;100631.02;;;30.02;33.19
44453;BME280;30155;52.164;21.236;2023-06-10T12:07:21;100630.66;;;29.29;33.24
44453;BME280;30155;52.164;21.236;2023-06-10T12:12:25;100635.36;;;28.45;33.86
44453;BME280;30155;52.164;21.236;2023-06-10T12:17:45;100636.80;;;27.67;34.83
44453;BME280;30155;52.164;21.236;2023-06-10T12:23:24;100635.28;;;27.65;34.97
44453;BME280;30155;52.164;21.236;2023-06-10T12:28:16;100635.33;;;27.64;35.37
44453;BME280;30155;52.164;21.236;2023-06-10T12:33:20;100635.72;;;27.47;35.85
44453;BME280;30155;52.164;21.236;2023-06-10T12:38:46;100632.64;;;26.78;36.31
44453;BME280;30155;52.164;21.236;2023-06-10T12:44:30;100624.13;;;27.24;36.59
44453;BME280;30155;52.164;21.236;2023-06-10T12:50:01;100622.77;;;27.37;36.42
44453;BME280;30155;52.164;21.236;2023-06-10T12:55:18;100617.95;;;27.53;36.60
44453;BME280;30155;52.164;21.236;2023-06-10T13:00:15;100607.65;;;28.38;36.05
44453;BME280;30155;52.164;21.236;2023-06-10T13:05:23;100604.00;;;28.93;35.46
44453;BME280;30155;52.164;21.236;2023-06-10T19:04:13;100813.58;;;20.71;50.36
44453;BME280;30155;52.164;21.236;2023-06-10T19:09:19;100816.16;;;20.57;51.00
44453;BME280;30155;52.164;21.236;2023-06-10T19:14:21;100824.57;;;20.42;51.35
44453;BME280;30155;52.164;21.236;2023-06-10T19:19:15;100829.31;;;20.27;51.85
44453;BME280;30155;52.164;21.236;2023-06-10T19:24:16;100831.72;;;20.12;52.20
44453;BME280;30155;52.164;21.236;2023-06-10T19:29:20;100833.04;;;19.99;52.71
44453;BME280;30155;52.164;21.236;2023-06-10T19:34:21;100838.40;;;19.86;52.94
44453;BME280;30155;52.164;21.236;2023-06-10T19:39:27;100841.28;;;19.73;53.30
44453;BME280;30155;52.164;21.236;2023-06-10T19:44:30;100845.94;;;19.58;53.56
44453;BME280;30155;52.164;21.236;2023-06-10T19:49:28;100854.33;;;19.41;54.09
44453;BME280;30155;52.164;21.236;2023-06-10T19:54:39;100861.23;;;19.27;54.36
44453;BME280;30155;52.164;21.236;2023-06-10T19:59:46;100864.11;;;19.12;54.64
44453;BME280;30155;52.164;21.236;2023-06-10T20:04:47;100870.34;;;18.96;55.05
44453;BME280;30155;52.164;21.236;2023-06-10T20:09:49;100873.45;;;18.87;55.66
44453;BME280;30155;52.164;21.236;2023-06-10T20:15:05;100873.83;;;18.85;56.04
44453;BME280;30155;52.164;21.236;2023-06-10T20:20:14;100878.19;;;18.88;56.28
44453;BME280;30155;52.164;21.236;2023-06-10T20:25:15;100880.69;;;18.85;56.53
44453;BME280;30155;52.164;21.236;2023-06-10T20:30:10;100884.76;;;18.83;56.55
44453;BME280;30155;52.164;21.236;2023-06-10T20:35:16;100882.85;;;18.80;56.72
44453;BME280;30155;52.164;21.236;2023-06-10T22:21:24;100925.84;;;16.61;63.53
44453;BME280;30155;52.164;21.236;2023-06-10T22:34:29;100926.77;;;16.52;64.12
44453;BME280;30155;52.164;21.236;2023-06-10T22:40:16;100926.77;;;16.50;64.29
44453;BME280;30155;52.164;21.236;2023-06-10T22:46:20;100934.14;;;16.48;64.59
44453;BME280;30155;52.164;21.236;2023-06-10T22:58:44;100938.90;;;16.38;64.82
44453;BME280;30155;52.164;21.236;2023-06-10T23:05:09;100938.21;;;16.31;64.90
44453;BME280;30155;52.164;21.236;2023-06-10T23:10:47;100939.27;;;16.28;65.14
44453;BME280;30155;52.164;21.236;2023-06-10T23:16:13;100942.75;;;16.30;65.16
44453;BME280;30155;52.164;21.236;2023-06-10T23:21:39;100940.66;;;16.32;64.95
44453;BME280;30155;52.164;21.236;2023-06-10T23:26:54;100938.20;;;16.34;64.82
44453;BME280;30155;52.164;21.236;2023-06-10T23:32:08;100935.60;;;16.30;64.76
44453;BME280;30155;52.164;21.236;2023-06-10T23:37:15;100937.02;;;16.23;64.64
44453;BME280;30155;52.164;21.236;2023-06-10T23:42:17;100938.79;;;16.15;64.75
44453;BME280;30155;52.164;21.236;2023-06-10T23:47:25;100945.81;;;16.05;64.39
44453;BME280;30155;52.164;21.236;2023-06-10T23:52:26;100944.23;;;16.01;64.09
44453;BME280;30155;52.164;21.236;2023-06-10T23:57:18;100944.95;;;15.94;63.89
